Sommer S — WDG3830 — position and weather

sailwx.info

Track history (hours):
 
Tides and Currents Weather Stations Pressure Air Temp Water Temp Dewpoint Dewpoint Depression Visibility Wind Speed Wind Dir Waves Ship Positions

Sommer S

Owner: Shaver Transportation Company, Portland, OR. More information available from US FCC via Universal Licensing System and Coast Guard Vessel Documentation Center.

Last reported at 2016-Jul-24 00:34 UTC. Time now 2016-Jul-24 01:03 UTC.
Position N 45°35' W 122°46'.

Length 25 m; draft 16.5 m.

Type: Tug. MMSI: 367530080.

Date/timePositionNaut miles runAvg speedWind from/ knotsBaromVisibWave heightAir tempDewpointWater temp
2016-Jul-24 00:34N 45°35' W 122°46'4 3.8
2016-Jul-23 23:33N 45°33' W 122°42'1 1.1
2016-Jul-23 22:34N 45°32' W 122°41'3 2.7
2016-Jul-23 21:33N 45°34' W 122°44'2 1.9
2016-Jul-23 20:33N 45°35' W 122°46'4 3.7
2016-Jul-23 19:34N 45°39' W 122°45'1 0.7
2016-Jul-23 18:33N 45°39' W 122°45'0 0.1
2016-Jul-23 17:34N 45°39' W 122°46'0 0.5
2016-Jul-23 16:34N 45°39' W 122°45'0 0.0
2016-Jul-23 15:34N 45°39' W 122°45'0 0.2
2016-Jul-23 14:33N 45°39' W 122°45'3 2.9
2016-Jul-23 13:33N 45°38' W 122°41'2 2.3
2016-Jul-23 12:33N 45°37' W 122°38'1 1.1
2016-Jul-23 11:33N 45°37' W 122°40'4 4.0
2016-Jul-23 10:33N 45°39' W 122°45'1 1.0
2016-Jul-23 09:33N 45°38' W 122°43'0 0.2
2016-Jul-23 08:33N 45°38' W 122°44'0 0.0
2016-Jul-23 07:34N 45°38' W 122°44'0 0.0
2016-Jul-23 06:34N 45°38' W 122°44'0 0.0
2016-Jul-23 04:34N 45°38' W 122°44'0 0.0
2016-Jul-23 03:33N 45°38' W 122°44'0 0.0
2016-Jul-23 02:34N 45°38' W 122°44'0 0.0
2016-Jul-23 01:34N 45°38' W 122°44'0 0.0
2016-Jul-23 00:34N 45°38' W 122°44'0 0.0
2016-Jul-22 23:33N 45°38' W 122°44'0 0.0
2016-Jul-22 22:34N 45°38' W 122°44'0 0.0
2016-Jul-22 21:33N 45°38' W 122°44'0 0.0
2016-Jul-22 20:33N 45°38' W 122°44'0 0.0
2016-Jul-22 19:34N 45°38' W 122°44'0 0.0
2016-Jul-22 18:34N 45°38' W 122°44'0 0.0
2016-Jul-22 17:34N 45°38' W 122°44'0 0.0
2016-Jul-22 16:34N 45°38' W 122°44'0 0.0
2016-Jul-22 15:34N 45°38' W 122°44'0 0.0
2016-Jul-22 14:34N 45°38' W 122°44'1 0.7
2016-Jul-22 13:33N 45°39' W 122°45'1 1.4
2016-Jul-22 12:33N 45°38' W 122°47'1 1.4
2016-Jul-22 11:33N 45°39' W 122°45'0 0.0
2016-Jul-22 10:33N 45°39' W 122°45'0 0.0
2016-Jul-22 09:33N 45°39' W 122°45'0 0.0
2016-Jul-22 08:33N 45°39' W 122°45'0 0.0
2016-Jul-22 07:33N 45°39' W 122°45'0 0.0
2016-Jul-22 05:33N 45°39' W 122°45'0 0.1
2016-Jul-22 04:33N 45°39' W 122°45'1 1.0
2016-Jul-22 03:33N 45°38' W 122°43'1 1.5
2016-Jul-22 02:33N 45°39' W 122°45'0 0.2
2016-Jul-22 01:33N 45°39' W 122°45'0 0.2
2016-Jul-22 00:34N 45°39' W 122°45'2 2.1
2016-Jul-21 23:34N 45°38' W 122°42'2 2.1
2016-Jul-21 22:33N 45°39' W 122°45'0 0.0
2016-Jul-21 21:34N 45°39' W 122°45'0 0.1
2016-Jul-21 20:33N 45°39' W 122°45'1 0.7
2016-Jul-21 19:33N 45°38' W 122°44'1 0.7
2016-Jul-21 18:33N 45°39' W 122°45'0 0.0
2016-Jul-21 17:34N 45°39' W 122°45'0 0.0
2016-Jul-21 16:33N 45°39' W 122°45'2 2.3
2016-Jul-21 15:33N 45°38' W 122°42'2 2.4
2016-Jul-21 14:33N 45°39' W 122°45'1 0.6
2016-Jul-21 13:33N 45°39' W 122°46'1 1.0
2016-Jul-21 12:33N 45°39' W 122°45'1 1.4
2016-Jul-21 11:34N 45°38' W 122°43'1 1.1
2016-Jul-21 10:33N 45°38' W 122°44'1 1.4
2016-Jul-21 09:34N 45°39' W 122°45'3 3.0
2016-Jul-21 08:34N 45°37' W 122°47'3 3.1
2016-Jul-21 07:33N 45°34' W 122°44'1 0.6
2016-Jul-21 06:34N 45°34' W 122°44'0 0.0
2016-Jul-21 05:33N 45°34' W 122°44'0 0.0
2016-Jul-21 04:33N 45°34' W 122°44'4 3.8
2016-Jul-21 03:33N 45°37' W 122°47'4 3.9
2016-Jul-21 02:34N 45°38' W 122°42'4 3.9
2016-Jul-21 01:34N 45°40' W 122°46'1211.6
2016-Jul-21 00:34N 45°52' W 122°47'1111.0
2016-Jul-20 23:34N 46°02' W 122°53'9 8.9
2016-Jul-20 22:33N 46°08' W 123°02'10 9.9
2016-Jul-20 21:33N 46°09' W 123°16'9 9.2
2016-Jul-20 20:33N 46°15' W 123°26'1111.5
2016-Jul-20 19:33N 46°14' W 123°43'1111.1
2016-Jul-20 18:33N 46°14' W 123°59'3 3.0
2016-Jul-20 17:34N 46°16' W 124°02'0 0.2
2016-Jul-20 16:33N 46°16' W 124°02'0 0.2
2016-Jul-20 15:33N 46°16' W 124°02'4 3.5
2016-Jul-20 14:34N 46°14' W 123°58'4 4.2
2016-Jul-20 13:34N 46°11' W 123°53'1 1.1
2016-Jul-20 12:34N 46°11' W 123°52'0 0.0
2016-Jul-20 11:34N 46°11' W 123°52'0 0.0
2016-Jul-20 10:34N 46°11' W 123°52'0 0.0
2016-Jul-20 09:34N 46°11' W 123°52'9 9.4
2016-Jul-20 08:34N 46°15' W 123°39'10 9.5
2016-Jul-20 07:34N 46°14' W 123°26'9 8.6
2016-Jul-20 06:34N 46°09' W 123°15'1110.5
2016-Jul-20 05:34N 46°08' W 123°00'4 4.1
2016-Jul-20 04:34N 46°05' W 122°56'0 0.0
2016-Jul-20 03:34N 46°05' W 122°56'0 0.0
2016-Jul-20 02:33N 46°05' W 122°56'0 0.0
2016-Jul-20 01:33N 46°05' W 122°56'0 0.0
2016-Jul-20 00:34N 46°05' W 122°56'0 0.0
2016-Jul-19 23:33N 46°05' W 122°56'0 0.0
2016-Jul-19 22:33N 46°05' W 122°56'0 0.0
2016-Jul-19 21:34N 46°05' W 122°56'0 0.0
2016-Jul-19 20:33N 46°05' W 122°56'0 0.0
2016-Jul-19 19:33N 46°05' W 122°56'0 0.0
2016-Jul-19 18:33N 46°05' W 122°56'0 0.0
2016-Jul-19 17:33N 46°05' W 122°56'0 0.0
2016-Jul-19 16:33N 46°05' W 122°56'0 0.0
2016-Jul-19 15:33N 46°05' W 122°56'0 0.0
2016-Jul-19 14:34N 46°05' W 122°56'0 0.0
2016-Jul-19 13:33N 46°05' W 122°56'0 0.0
2016-Jul-19 12:33N 46°05' W 122°56'0 0.0
2016-Jul-19 11:33N 46°05' W 122°56'0 0.0
2016-Jul-19 10:34N 46°05' W 122°56'0 0.0
2016-Jul-19 09:33N 46°05' W 122°56'0 0.0
2016-Jul-19 08:34N 46°05' W 122°56'0 0.0
2016-Jul-19 07:33N 46°05' W 122°56'0 0.0
2016-Jul-19 04:33N 46°05' W 122°56'0 0.0
2016-Jul-19 03:33N 46°05' W 122°56'1 0.8
2016-Jul-19 02:33N 46°06' W 122°57'1 0.9
2016-Jul-19 01:33N 46°06' W 122°58'2 1.7
2016-Jul-19 00:34N 46°05' W 122°56'0 0.0
2016-Jul-18 23:33N 46°05' W 122°56'0 0.0
2016-Jul-18 22:34N 46°05' W 122°56'0 0.0
2016-Jul-18 21:33N 46°05' W 122°56'0 0.0
2016-Jul-18 20:33N 46°05' W 122°56'0 0.0
2016-Jul-18 19:33N 46°05' W 122°56'1 1.2
2016-Jul-18 18:33N 46°06' W 122°57'0 0.2
2016-Jul-18 17:34N 46°06' W 122°57'0 0.0
2016-Jul-18 16:33N 46°06' W 122°57'0 0.0
2016-Jul-18 15:34N 46°06' W 122°58'0 0.0
2016-Jul-18 14:33N 46°06' W 122°58'0 0.1
2016-Jul-18 13:34N 46°06' W 122°57'0 0.5
2016-Jul-18 12:33N 46°06' W 122°57'0 0.4
2016-Jul-18 11:34N 46°06' W 122°56'1 0.6
2016-Jul-18 10:34N 46°05' W 122°56'0 0.0
2016-Jul-18 09:34N 46°05' W 122°56'0 0.0
2016-Jul-18 08:34N 46°05' W 122°56'0 0.0
2016-Jul-18 07:33N 46°05' W 122°56'0 0.0
2016-Jul-18 06:34N 46°05' W 122°56'0 0.0
2016-Jul-18 05:33N 46°05' W 122°56'0 0.0
2016-Jul-18 04:33N 46°05' W 122°56'3 3.5
2016-Jul-18 03:34N 46°03' W 122°53'1212.3
2016-Jul-18 02:33N 45°51' W 122°47'1 0.5
2016-Jul-18 01:34N 45°51' W 122°47'9 8.9
2016-Jul-18 00:34N 45°59' W 122°50'0 0.1
2016-Jul-17 23:34N 45°59' W 122°50'0 0.0
2016-Jul-17 22:33N 45°59' W 122°50'0 0.0
2016-Jul-17 21:34N 45°59' W 122°50'0 0.1
2016-Jul-17 20:34N 45°59' W 122°50'0 0.0
2016-Jul-17 19:33N 45°59' W 122°50'0 0.1
2016-Jul-17 18:34N 45°59' W 122°50'3 3.0
2016-Jul-17 17:34N 46°02' W 122°52'0 0.0
2016-Jul-17 16:34N 46°02' W 122°52'0 0.0
2016-Jul-17 15:33N 46°02' W 122°52'0 0.0
2016-Jul-17 14:33N 46°02' W 122°52'2 1.6
2016-Jul-17 13:34N 46°00' W 122°51'3 2.6
2016-Jul-17 12:34N 46°03' W 122°53'4 4.2
2016-Jul-17 11:33N 46°06' W 122°56'2 1.6
2016-Jul-17 10:33N 46°07' W 122°58'2 2.2
2016-Jul-17 09:33N 46°05' W 122°56'0 0.0
2016-Jul-17 08:34N 46°05' W 122°56'0 0.0
2016-Jul-17 07:34N 46°05' W 122°56'0 0.0
2016-Jul-17 06:33N 46°05' W 122°56'0 0.0
2016-Jul-17 04:34N 46°05' W 122°56'6 5.7
2016-Jul-17 03:33N 46°01' W 122°52'7 6.8
2016-Jul-17 02:33N 45°54' W 122°48'9 8.5
2016-Jul-17 01:33N 45°46' W 122°46'8 7.6
2016-Jul-17 00:33N 45°38' W 122°44'2 2.4
2016-Jul-16 23:33N 45°40' W 122°46'0 0.0
2016-Jul-16 22:33N 45°40' W 122°46'0 0.0
2016-Jul-16 21:33N 45°40' W 122°46'0 0.0
2016-Jul-16 20:33N 45°40' W 122°46'0 0.0
2016-Jul-16 19:33N 45°40' W 122°46'0 0.1
2016-Jul-16 18:33N 45°40' W 122°46'2 1.6
2016-Jul-16 17:33N 45°39' W 122°45'0 0.0
2016-Jul-16 16:33N 45°39' W 122°45'0 0.0
2016-Jul-16 15:34N 45°39' W 122°45'0 0.0
2016-Jul-16 14:33N 45°39' W 122°45'0 0.0
2016-Jul-16 13:33N 45°39' W 122°45'0 0.0
2016-Jul-16 12:33N 45°39' W 122°45'0 0.0
2016-Jul-16 11:33N 45°39' W 122°45'0 0.0
2016-Jul-16 10:33N 45°39' W 122°45'0 0.1
2016-Jul-16 09:33N 45°39' W 122°45'0 0.0
2016-Jul-16 08:33N 45°39' W 122°45'0 0.0
2016-Jul-16 07:33N 45°39' W 122°45'0 0.0
2016-Jul-16 06:33N 45°39' W 122°45'0 0.0
2016-Jul-16 04:33N 45°39' W 122°45'0 0.2
2016-Jul-16 03:33N 45°39' W 122°45'0 0.2
2016-Jul-16 02:33N 45°39' W 122°45'0 0.0
2016-Jul-16 01:33N 45°39' W 122°45'2 2.3
2016-Jul-16 00:31N 45°38' W 122°42'0 0.1
2016-Jul-15 23:33N 45°38' W 122°42'2 2.0
2016-Jul-15 22:33N 45°39' W 122°44'0 0.3
2016-Jul-15 21:33N 45°39' W 122°45'0 0.0
2016-Jul-15 20:33N 45°39' W 122°45'0 0.0
2016-Jul-15 19:33N 45°39' W 122°45'1 1.0
2016-Jul-15 18:33N 45°39' W 122°46'1 0.8
2016-Jul-15 17:33N 45°39' W 122°45'0 0.0
2016-Jul-15 16:33N 45°39' W 122°45'0 0.0
2016-Jul-15 15:33N 45°39' W 122°45'0 0.0
2016-Jul-15 14:33N 45°39' W 122°45'0 0.0
2016-Jul-15 13:33N 45°39' W 122°45'2 1.9
2016-Jul-15 12:33N 45°38' W 122°42'2 1.9
2016-Jul-15 11:33N 45°39' W 122°45'0 0.0
2016-Jul-15 10:33N 45°39' W 122°45'0 0.0
2016-Jul-15 09:33N 45°39' W 122°45'3 2.7
2016-Jul-15 08:33N 45°38' W 122°42'2 2.4
2016-Jul-15 07:33N 45°39' W 122°45'0 0.0
2016-Jul-15 06:33N 45°39' W 122°45'0 0.0
2016-Jul-15 05:33N 45°39' W 122°45'0 0.0
2016-Jul-15 04:33N 45°39' W 122°45'0 0.0
2016-Jul-15 03:33N 45°39' W 122°45'0 0.0
2016-Jul-15 02:33N 45°39' W 122°45'9 8.6
2016-Jul-15 01:33N 45°47' W 122°47'9 9.2
2016-Jul-15 00:33N 45°56' W 122°48'10 9.5
2016-Jul-14 23:33N 46°05' W 122°54'1 1.3
2016-Jul-14 22:33N 46°05' W 122°56'0 0.0
2016-Jul-14 21:33N 46°05' W 122°56'0 0.0
2016-Jul-14 20:33N 46°05' W 122°56'0 0.0
2016-Jul-14 19:33N 46°05' W 122°56'1 0.6
2016-Jul-14 18:33N 46°06' W 122°56'1 1.0
2016-Jul-14 17:33N 46°06' W 122°58'0 0.0
2016-Jul-14 16:34N 46°06' W 122°58'0 0.0
2016-Jul-14 15:33N 46°06' W 122°58'0 0.0
2016-Jul-14 14:33N 46°06' W 122°58'1 1.0
2016-Jul-14 13:33N 46°06' W 122°56'1 0.9
2016-Jul-14 12:33N 46°05' W 122°55'0 0.0
2016-Jul-14 11:33N 46°05' W 122°55'1312.8
2016-Jul-14 10:33N 45°54' W 122°48'1313.0
2016-Jul-14 09:33N 45°41' W 122°46'2 2.2
2016-Jul-14 08:33N 45°39' W 122°45'0 0.0
2016-Jul-14 07:34N 45°39' W 122°45'0 0.0
2016-Jul-14 06:33N 45°39' W 122°45'0 0.0
2016-Jul-14 05:33N 45°39' W 122°45'1 0.7
2016-Jul-14 04:33N 45°38' W 122°44'1 0.7
2016-Jul-14 03:33N 45°39' W 122°45'0 0.0
2016-Jul-14 02:33N 45°39' W 122°45'0 0.0
2016-Jul-14 01:33N 45°39' W 122°45'0 0.0
2016-Jul-14 00:34N 45°39' W 122°45'  
Track history (hours):
 
Tides and Currents Weather Stations Pressure Air Temp Water Temp Dewpoint Dewpoint Depression Visibility Wind Speed Wind Dir Waves Ship Positions

Sommer S

Owner: Shaver Transportation Company, Portland, OR. More information available from US FCC via Universal Licensing System and Coast Guard Vessel Documentation Center.

Last reported at 2016-Jul-24 00:34 UTC. Time now 2016-Jul-24 01:03 UTC.
Position N 45°35' W 122°46'.

Length 25 m; draft 16.5 m.

Type: Tug. MMSI: 367530080.

Date/timePositionNaut miles runAvg speedWind from/ knotsBaromVisibWave heightAir tempDewpointWater temp
2016-Jul-24 00:34N 45°35' W 122°46'4 3.8
2016-Jul-23 23:33N 45°33' W 122°42'1 1.1
2016-Jul-23 22:34N 45°32' W 122°41'3 2.7
2016-Jul-23 21:33N 45°34' W 122°44'2 1.9
2016-Jul-23 20:33N 45°35' W 122°46'4 3.7
2016-Jul-23 19:34N 45°39' W 122°45'1 0.7
2016-Jul-23 18:33N 45°39' W 122°45'0 0.1
2016-Jul-23 17:34N 45°39' W 122°46'0 0.5
2016-Jul-23 16:34N 45°39' W 122°45'0 0.0
2016-Jul-23 15:34N 45°39' W 122°45'0 0.2
2016-Jul-23 14:33N 45°39' W 122°45'3 2.9
2016-Jul-23 13:33N 45°38' W 122°41'2 2.3
2016-Jul-23 12:33N 45°37' W 122°38'1 1.1
2016-Jul-23 11:33N 45°37' W 122°40'4 4.0
2016-Jul-23 10:33N 45°39' W 122°45'1 1.0
2016-Jul-23 09:33N 45°38' W 122°43'0 0.2
2016-Jul-23 08:33N 45°38' W 122°44'0 0.0
2016-Jul-23 07:34N 45°38' W 122°44'0 0.0
2016-Jul-23 06:34N 45°38' W 122°44'0 0.0
2016-Jul-23 04:34N 45°38' W 122°44'0 0.0
2016-Jul-23 03:33N 45°38' W 122°44'0 0.0
2016-Jul-23 02:34N 45°38' W 122°44'0 0.0
2016-Jul-23 01:34N 45°38' W 122°44'0 0.0
2016-Jul-23 00:34N 45°38' W 122°44'0 0.0
2016-Jul-22 23:33N 45°38' W 122°44'0 0.0
2016-Jul-22 22:34N 45°38' W 122°44'0 0.0
2016-Jul-22 21:33N 45°38' W 122°44'0 0.0
2016-Jul-22 20:33N 45°38' W 122°44'0 0.0
2016-Jul-22 19:34N 45°38' W 122°44'0 0.0
2016-Jul-22 18:34N 45°38' W 122°44'0 0.0
2016-Jul-22 17:34N 45°38' W 122°44'0 0.0
2016-Jul-22 16:34N 45°38' W 122°44'0 0.0
2016-Jul-22 15:34N 45°38' W 122°44'0 0.0
2016-Jul-22 14:34N 45°38' W 122°44'1 0.7
2016-Jul-22 13:33N 45°39' W 122°45'1 1.4
2016-Jul-22 12:33N 45°38' W 122°47'1 1.4
2016-Jul-22 11:33N 45°39' W 122°45'0 0.0
2016-Jul-22 10:33N 45°39' W 122°45'0 0.0
2016-Jul-22 09:33N 45°39' W 122°45'0 0.0
2016-Jul-22 08:33N 45°39' W 122°45'0 0.0
2016-Jul-22 07:33N 45°39' W 122°45'0 0.0
2016-Jul-22 05:33N 45°39' W 122°45'0 0.1
2016-Jul-22 04:33N 45°39' W 122°45'1 1.0
2016-Jul-22 03:33N 45°38' W 122°43'1 1.5
2016-Jul-22 02:33N 45°39' W 122°45'0 0.2
2016-Jul-22 01:33N 45°39' W 122°45'0 0.2
2016-Jul-22 00:34N 45°39' W 122°45'2 2.1
2016-Jul-21 23:34N 45°38' W 122°42'2 2.1
2016-Jul-21 22:33N 45°39' W 122°45'0 0.0
2016-Jul-21 21:34N 45°39' W 122°45'0 0.1
2016-Jul-21 20:33N 45°39' W 122°45'1 0.7
2016-Jul-21 19:33N 45°38' W 122°44'1 0.7
2016-Jul-21 18:33N 45°39' W 122°45'0 0.0
2016-Jul-21 17:34N 45°39' W 122°45'0 0.0
2016-Jul-21 16:33N 45°39' W 122°45'2 2.3
2016-Jul-21 15:33N 45°38' W 122°42'2 2.4
2016-Jul-21 14:33N 45°39' W 122°45'1 0.6
2016-Jul-21 13:33N 45°39' W 122°46'1 1.0
2016-Jul-21 12:33N 45°39' W 122°45'1 1.4
2016-Jul-21 11:34N 45°38' W 122°43'1 1.1
2016-Jul-21 10:33N 45°38' W 122°44'1 1.4
2016-Jul-21 09:34N 45°39' W 122°45'3 3.0
2016-Jul-21 08:34N 45°37' W 122°47'3 3.1
2016-Jul-21 07:33N 45°34' W 122°44'1 0.6
2016-Jul-21 06:34N 45°34' W 122°44'0 0.0
2016-Jul-21 05:33N 45°34' W 122°44'0 0.0
2016-Jul-21 04:33N 45°34' W 122°44'4 3.8
2016-Jul-21 03:33N 45°37' W 122°47'4 3.9
2016-Jul-21 02:34N 45°38' W 122°42'4 3.9
2016-Jul-21 01:34N 45°40' W 122°46'1211.6
2016-Jul-21 00:34N 45°52' W 122°47'1111.0
2016-Jul-20 23:34N 46°02' W 122°53'9 8.9
2016-Jul-20 22:33N 46°08' W 123°02'10 9.9
2016-Jul-20 21:33N 46°09' W 123°16'9 9.2
2016-Jul-20 20:33N 46°15' W 123°26'1111.5
2016-Jul-20 19:33N 46°14' W 123°43'1111.1
2016-Jul-20 18:33N 46°14' W 123°59'3 3.0
2016-Jul-20 17:34N 46°16' W 124°02'0 0.2
2016-Jul-20 16:33N 46°16' W 124°02'0 0.2
2016-Jul-20 15:33N 46°16' W 124°02'4 3.5
2016-Jul-20 14:34N 46°14' W 123°58'4 4.2
2016-Jul-20 13:34N 46°11' W 123°53'1 1.1
2016-Jul-20 12:34N 46°11' W 123°52'0 0.0
2016-Jul-20 11:34N 46°11' W 123°52'0 0.0
2016-Jul-20 10:34N 46°11' W 123°52'0 0.0
2016-Jul-20 09:34N 46°11' W 123°52'9 9.4
2016-Jul-20 08:34N 46°15' W 123°39'10 9.5
2016-Jul-20 07:34N 46°14' W 123°26'9 8.6
2016-Jul-20 06:34N 46°09' W 123°15'1110.5
2016-Jul-20 05:34N 46°08' W 123°00'4 4.1
2016-Jul-20 04:34N 46°05' W 122°56'0 0.0
2016-Jul-20 03:34N 46°05' W 122°56'0 0.0
2016-Jul-20 02:33N 46°05' W 122°56'0 0.0
2016-Jul-20 01:33N 46°05' W 122°56'0 0.0
2016-Jul-20 00:34N 46°05' W 122°56'0 0.0
2016-Jul-19 23:33N 46°05' W 122°56'0 0.0
2016-Jul-19 22:33N 46°05' W 122°56'0 0.0
2016-Jul-19 21:34N 46°05' W 122°56'0 0.0
2016-Jul-19 20:33N 46°05' W 122°56'0 0.0
2016-Jul-19 19:33N 46°05' W 122°56'0 0.0
2016-Jul-19 18:33N 46°05' W 122°56'0 0.0
2016-Jul-19 17:33N 46°05' W 122°56'0 0.0
2016-Jul-19 16:33N 46°05' W 122°56'0 0.0
2016-Jul-19 15:33N 46°05' W 122°56'0 0.0
2016-Jul-19 14:34N 46°05' W 122°56'0 0.0
2016-Jul-19 13:33N 46°05' W 122°56'0 0.0
2016-Jul-19 12:33N 46°05' W 122°56'0 0.0
2016-Jul-19 11:33N 46°05' W 122°56'0 0.0
2016-Jul-19 10:34N 46°05' W 122°56'0 0.0
2016-Jul-19 09:33N 46°05' W 122°56'0 0.0
2016-Jul-19 08:34N 46°05' W 122°56'0 0.0
2016-Jul-19 07:33N 46°05' W 122°56'0 0.0
2016-Jul-19 04:33N 46°05' W 122°56'0 0.0
2016-Jul-19 03:33N 46°05' W 122°56'1 0.8
2016-Jul-19 02:33N 46°06' W 122°57'1 0.9
2016-Jul-19 01:33N 46°06' W 122°58'2 1.7
2016-Jul-19 00:34N 46°05' W 122°56'0 0.0
2016-Jul-18 23:33N 46°05' W 122°56'0 0.0
2016-Jul-18 22:34N 46°05' W 122°56'0 0.0
2016-Jul-18 21:33N 46°05' W 122°56'0 0.0
2016-Jul-18 20:33N 46°05' W 122°56'0 0.0
2016-Jul-18 19:33N 46°05' W 122°56'1 1.2
2016-Jul-18 18:33N 46°06' W 122°57'0 0.2
2016-Jul-18 17:34N 46°06' W 122°57'0 0.0
2016-Jul-18 16:33N 46°06' W 122°57'0 0.0
2016-Jul-18 15:34N 46°06' W 122°58'0 0.0
2016-Jul-18 14:33N 46°06' W 122°58'0 0.1
2016-Jul-18 13:34N 46°06' W 122°57'0 0.5
2016-Jul-18 12:33N 46°06' W 122°57'0 0.4
2016-Jul-18 11:34N 46°06' W 122°56'1 0.6
2016-Jul-18 10:34N 46°05' W 122°56'0 0.0
2016-Jul-18 09:34N 46°05' W 122°56'0 0.0
2016-Jul-18 08:34N 46°05' W 122°56'0 0.0
2016-Jul-18 07:33N 46°05' W 122°56'0 0.0
2016-Jul-18 06:34N 46°05' W 122°56'0 0.0
2016-Jul-18 05:33N 46°05' W 122°56'0 0.0
2016-Jul-18 04:33N 46°05' W 122°56'3 3.5
2016-Jul-18 03:34N 46°03' W 122°53'1212.3
2016-Jul-18 02:33N 45°51' W 122°47'1 0.5
2016-Jul-18 01:34N 45°51' W 122°47'9 8.9
2016-Jul-18 00:34N 45°59' W 122°50'0 0.1
2016-Jul-17 23:34N 45°59' W 122°50'0 0.0
2016-Jul-17 22:33N 45°59' W 122°50'0 0.0
2016-Jul-17 21:34N 45°59' W 122°50'0 0.1
2016-Jul-17 20:34N 45°59' W 122°50'0 0.0
2016-Jul-17 19:33N 45°59' W 122°50'0 0.1
2016-Jul-17 18:34N 45°59' W 122°50'3 3.0
2016-Jul-17 17:34N 46°02' W 122°52'0 0.0
2016-Jul-17 16:34N 46°02' W 122°52'0 0.0
2016-Jul-17 15:33N 46°02' W 122°52'0 0.0
2016-Jul-17 14:33N 46°02' W 122°52'2 1.6
2016-Jul-17 13:34N 46°00' W 122°51'3 2.6
2016-Jul-17 12:34N 46°03' W 122°53'4 4.2
2016-Jul-17 11:33N 46°06' W 122°56'2 1.6
2016-Jul-17 10:33N 46°07' W 122°58'2 2.2
2016-Jul-17 09:33N 46°05' W 122°56'0 0.0
2016-Jul-17 08:34N 46°05' W 122°56'0 0.0
2016-Jul-17 07:34N 46°05' W 122°56'0 0.0
2016-Jul-17 06:33N 46°05' W 122°56'0 0.0
2016-Jul-17 04:34N 46°05' W 122°56'6 5.7
2016-Jul-17 03:33N 46°01' W 122°52'7 6.8
2016-Jul-17 02:33N 45°54' W 122°48'9 8.5
2016-Jul-17 01:33N 45°46' W 122°46'8 7.6
2016-Jul-17 00:33N 45°38' W 122°44'2 2.4
2016-Jul-16 23:33N 45°40' W 122°46'0 0.0
2016-Jul-16 22:33N 45°40' W 122°46'0 0.0
2016-Jul-16 21:33N 45°40' W 122°46'0 0.0
2016-Jul-16 20:33N 45°40' W 122°46'0 0.0
2016-Jul-16 19:33N 45°40' W 122°46'0 0.1
2016-Jul-16 18:33N 45°40' W 122°46'2 1.6
2016-Jul-16 17:33N 45°39' W 122°45'0 0.0
2016-Jul-16 16:33N 45°39' W 122°45'0 0.0
2016-Jul-16 15:34N 45°39' W 122°45'0 0.0
2016-Jul-16 14:33N 45°39' W 122°45'0 0.0
2016-Jul-16 13:33N 45°39' W 122°45'0 0.0
2016-Jul-16 12:33N 45°39' W 122°45'0 0.0
2016-Jul-16 11:33N 45°39' W 122°45'0 0.0
2016-Jul-16 10:33N 45°39' W 122°45'0 0.1
2016-Jul-16 09:33N 45°39' W 122°45'0 0.0
2016-Jul-16 08:33N 45°39' W 122°45'0 0.0
2016-Jul-16 07:33N 45°39' W 122°45'0 0.0
2016-Jul-16 06:33N 45°39' W 122°45'0 0.0
2016-Jul-16 04:33N 45°39' W 122°45'0 0.2
2016-Jul-16 03:33N 45°39' W 122°45'0 0.2
2016-Jul-16 02:33N 45°39' W 122°45'0 0.0
2016-Jul-16 01:33N 45°39' W 122°45'2 2.3
2016-Jul-16 00:31N 45°38' W 122°42'0 0.1
2016-Jul-15 23:33N 45°38' W 122°42'2 2.0
2016-Jul-15 22:33N 45°39' W 122°44'0 0.3
2016-Jul-15 21:33N 45°39' W 122°45'0 0.0
2016-Jul-15 20:33N 45°39' W 122°45'0 0.0
2016-Jul-15 19:33N 45°39' W 122°45'1 1.0
2016-Jul-15 18:33N 45°39' W 122°46'1 0.8
2016-Jul-15 17:33N 45°39' W 122°45'0 0.0
2016-Jul-15 16:33N 45°39' W 122°45'0 0.0
2016-Jul-15 15:33N 45°39' W 122°45'0 0.0
2016-Jul-15 14:33N 45°39' W 122°45'0 0.0
2016-Jul-15 13:33N 45°39' W 122°45'2 1.9
2016-Jul-15 12:33N 45°38' W 122°42'2 1.9
2016-Jul-15 11:33N 45°39' W 122°45'0 0.0
2016-Jul-15 10:33N 45°39' W 122°45'0 0.0
2016-Jul-15 09:33N 45°39' W 122°45'3 2.7
2016-Jul-15 08:33N 45°38' W 122°42'2 2.4
2016-Jul-15 07:33N 45°39' W 122°45'0 0.0
2016-Jul-15 06:33N 45°39' W 122°45'0 0.0
2016-Jul-15 05:33N 45°39' W 122°45'0 0.0
2016-Jul-15 04:33N 45°39' W 122°45'0 0.0
2016-Jul-15 03:33N 45°39' W 122°45'0 0.0
2016-Jul-15 02:33N 45°39' W 122°45'9 8.6
2016-Jul-15 01:33N 45°47' W 122°47'9 9.2
2016-Jul-15 00:33N 45°56' W 122°48'10 9.5
2016-Jul-14 23:33N 46°05' W 122°54'1 1.3
2016-Jul-14 22:33N 46°05' W 122°56'0 0.0
2016-Jul-14 21:33N 46°05' W 122°56'0 0.0
2016-Jul-14 20:33N 46°05' W 122°56'0 0.0
2016-Jul-14 19:33N 46°05' W 122°56'1 0.6
2016-Jul-14 18:33N 46°06' W 122°56'1 1.0
2016-Jul-14 17:33N 46°06' W 122°58'0 0.0
2016-Jul-14 16:34N 46°06' W 122°58'0 0.0
2016-Jul-14 15:33N 46°06' W 122°58'0 0.0
2016-Jul-14 14:33N 46°06' W 122°58'1 1.0
2016-Jul-14 13:33N 46°06' W 122°56'1 0.9
2016-Jul-14 12:33N 46°05' W 122°55'0 0.0
2016-Jul-14 11:33N 46°05' W 122°55'1312.8
2016-Jul-14 10:33N 45°54' W 122°48'1313.0
2016-Jul-14 09:33N 45°41' W 122°46'2 2.2
2016-Jul-14 08:33N 45°39' W 122°45'0 0.0
2016-Jul-14 07:34N 45°39' W 122°45'0 0.0
2016-Jul-14 06:33N 45°39' W 122°45'0 0.0
2016-Jul-14 05:33N 45°39' W 122°45'1 0.7
2016-Jul-14 04:33N 45°38' W 122°44'1 0.7
2016-Jul-14 03:33N 45°39' W 122°45'0 0.0
2016-Jul-14 02:33N 45°39' W 122°45'0 0.0
2016-Jul-14 01:33N 45°39' W 122°45'0 0.0
2016-Jul-14 00:34N 45°39' W 122°45'  

Dump ship's entire track history